THY1545 EDDP-ULLI
Flight info
| Callsign | THY1545 |
|---|---|
| Flight time | 1h 51m |
| Altitude | 31000 |
| Route | PENEM1S PENEM Y236 OLBIK L735 LUROS/N0454F270 Y621 SUBIX/N0469F350 N858 DENKO M994 GOMED/K0867F350 B704 NERIG/N0468F350 DCT ASKOR DCT MONUS T653 OBANA OBANA1B |
| Aircraft | B77L/H-SDE1E2E3FGHIJ2J3J4J5M1RWXY/LB1D1 |
Departure
| Time | 2026-05-05 11:32 |
|---|---|
| Airport | Leipzig/Halle Airport (EDDP) |
Arrival
| Time | 2026-05-05 13:23 |
|---|---|
| Airport | Pulkovo Airport (ULLI) |
| Time | Latitude | Longitude | Altitude | Speed | Heading |
|---|---|---|---|---|---|
| 2026-05-05 11:16 | 51.40968 | 12.24498 | 552 ft | 0 kts | 266° |
| 2026-05-05 11:20 | 51.40969 | 12.24512 | 470 ft | 3 kts | 264° |
| 2026-05-05 11:20 | 51.40971 | 12.24544 | 469 ft | 3 kts | 265° |
| 2026-05-05 11:20 | 51.40972 | 12.24573 | 463 ft | 3 kts | 287° |
| 2026-05-05 11:20 | 51.40963 | 12.24598 | 466 ft | 3 kts | 324° |
| 2026-05-05 11:21 | 51.40946 | 12.24613 | 464 ft | 3 kts | 347° |
| 2026-05-05 11:21 | 51.40933 | 12.24616 | 463 ft | 1 kts | 355° |
| 2026-05-05 11:26 | 51.40935 | 12.24616 | 470 ft | 2 kts | 355° |
| 2026-05-05 11:27 | 51.41006 | 12.24604 | 468 ft | 12 kts | 356° |
| 2026-05-05 11:27 | 51.41094 | 12.24655 | 467 ft | 17 kts | 72° |
| 2026-05-05 11:27 | 51.41107 | 12.24857 | 476 ft | 19 kts | 86° |
| 2026-05-05 11:27 | 51.41115 | 12.25019 | 479 ft | 3 kts | 86° |
| 2026-05-05 11:28 | 51.41119 | 12.25109 | 472 ft | 17 kts | 86° |
| 2026-05-05 11:28 | 51.41130 | 12.25348 | 481 ft | 25 kts | 86° |
| 2026-05-05 11:28 | 51.41152 | 12.25598 | 471 ft | 23 kts | 50° |
| 2026-05-05 11:28 | 51.41241 | 12.25619 | 477 ft | 8 kts | 355° |
| 2026-05-05 11:29 | 51.41276 | 12.25615 | 472 ft | 8 kts | 358° |
| 2026-05-05 11:29 | 51.41284 | 12.25615 | 472 ft | 0 kts | 356° |
| 2026-05-05 11:29 | 51.41312 | 12.25609 | 475 ft | 13 kts | 353° |
| 2026-05-05 11:30 | 51.41394 | 12.25515 | 473 ft | 14 kts | 276° |
| 2026-05-05 11:30 | 51.41394 | 12.25481 | 476 ft | 0 kts | 266° |
| 2026-05-05 11:31 | 51.41393 | 12.25455 | 473 ft | 12 kts | 266° |
| 2026-05-05 11:31 | 51.41370 | 12.24965 | 474 ft | 88 kts | 265° |
| 2026-05-05 11:32 | 51.41304 | 12.23508 | 474 ft | 172 kts | 265° |
| 2026-05-05 11:32 | 51.41188 | 12.21370 | 891 ft | 205 kts | 266° |
| 2026-05-05 11:32 | 51.41067 | 12.19011 | 1678 ft | 219 kts | 266° |
| 2026-05-05 11:32 | 51.40940 | 12.16534 | 2681 ft | 226 kts | 265° |
| 2026-05-05 11:33 | 51.40836 | 12.14001 | 3770 ft | 227 kts | 273° |
| 2026-05-05 11:33 | 51.41318 | 12.11602 | 4864 ft | 231 kts | 302° |
| 2026-05-05 11:33 | 51.42382 | 12.09683 | 6030 ft | 228 kts | 311° |
| 2026-05-05 11:33 | 51.43588 | 12.08053 | 6988 ft | 236 kts | 334° |
| 2026-05-05 11:34 | 51.45240 | 12.07636 | 7784 ft | 248 kts | 2° |
| 2026-05-05 11:34 | 51.46980 | 12.07874 | 8636 ft | 255 kts | 2° |
| 2026-05-05 11:34 | 51.48840 | 12.08080 | 8967 ft | 279 kts | 1° |
| 2026-05-05 11:34 | 51.50856 | 12.08241 | 9187 ft | 302 kts | 0° |
| 2026-05-05 11:35 | 51.53012 | 12.08365 | 9654 ft | 316 kts | 359° |
| 2026-05-05 11:35 | 51.55242 | 12.08463 | 10250 ft | 324 kts | 359° |
| 2026-05-05 11:35 | 51.57506 | 12.08549 | 10948 ft | 328 kts | 359° |
| 2026-05-05 11:35 | 51.59795 | 12.08617 | 11707 ft | 330 kts | 358° |
| 2026-05-05 11:36 | 51.62111 | 12.08670 | 12444 ft | 334 kts | 358° |
| 2026-05-05 11:36 | 51.64450 | 12.08717 | 13153 ft | 338 kts | 358° |
| 2026-05-05 11:36 | 51.66809 | 12.08879 | 13793 ft | 342 kts | 8° |
| 2026-05-05 11:36 | 51.69053 | 12.10276 | 14256 ft | 353 kts | 34° |
| 2026-05-05 11:37 | 51.70770 | 12.13094 | 14868 ft | 357 kts | 59° |
| 2026-05-05 11:37 | 51.71695 | 12.16798 | 15493 ft | 357 kts | 81° |
| 2026-05-05 11:37 | 51.72080 | 12.20772 | 16009 ft | 363 kts | 84° |
| 2026-05-05 11:37 | 51.72408 | 12.24853 | 16590 ft | 369 kts | 84° |
| 2026-05-05 11:38 | 51.72726 | 12.28976 | 17255 ft | 372 kts | 84° |
| 2026-05-05 11:38 | 51.73049 | 12.33121 | 17906 ft | 376 kts | 84° |
| 2026-05-05 11:38 | 51.73384 | 12.37331 | 18457 ft | 380 kts | 84° |
| 2026-05-05 11:38 | 51.73731 | 12.41578 | 19021 ft | 384 kts | 84° |
| 2026-05-05 11:39 | 51.74085 | 12.45856 | 19598 ft | 386 kts | 84° |
| 2026-05-05 11:39 | 51.74444 | 12.50165 | 20158 ft | 388 kts | 84° |
| 2026-05-05 11:39 | 51.74804 | 12.54498 | 20719 ft | 391 kts | 84° |
| 2026-05-05 11:39 | 51.75167 | 12.58865 | 21265 ft | 394 kts | 84° |
| 2026-05-05 11:40 | 51.75531 | 12.63264 | 21812 ft | 397 kts | 84° |
| 2026-05-05 11:40 | 51.75895 | 12.67697 | 22361 ft | 400 kts | 84° |
| 2026-05-05 11:40 | 51.76261 | 12.72164 | 22878 ft | 404 kts | 84° |
| 2026-05-05 11:40 | 51.76631 | 12.76687 | 23342 ft | 409 kts | 84° |
| 2026-05-05 11:41 | 51.77000 | 12.81240 | 23817 ft | 411 kts | 84° |
| 2026-05-05 11:41 | 51.77361 | 12.85834 | 24288 ft | 412 kts | 87° |
| 2026-05-05 11:41 | 51.77369 | 12.90425 | 24659 ft | 413 kts | 99° |
| 2026-05-05 11:41 | 51.76846 | 12.94976 | 25069 ft | 412 kts | 109° |
| 2026-05-05 11:42 | 51.75862 | 12.99320 | 25527 ft | 410 kts | 117° |
| 2026-05-05 11:42 | 51.74702 | 13.03486 | 25973 ft | 412 kts | 118° |
| 2026-05-05 11:42 | 51.73501 | 13.07740 | 26411 ft | 415 kts | 118° |
| 2026-05-05 11:42 | 51.72311 | 13.11996 | 26843 ft | 418 kts | 118° |
| 2026-05-05 11:43 | 51.71132 | 13.16267 | 27280 ft | 421 kts | 118° |
| 2026-05-05 11:43 | 51.69949 | 13.20595 | 27648 ft | 426 kts | 118° |
| 2026-05-05 11:43 | 51.68747 | 13.24995 | 28033 ft | 430 kts | 118° |
| 2026-05-05 11:43 | 51.67597 | 13.29441 | 28425 ft | 434 kts | 110° |
| 2026-05-05 11:44 | 51.67126 | 13.34295 | 28712 ft | 446 kts | 90° |
| 2026-05-05 11:44 | 51.67343 | 13.37662 | 28950 ft | 451 kts | 78° |
| 2026-05-05 11:44 | 51.68860 | 13.43878 | 29435 ft | 454 kts | 64° |
| 2026-05-05 11:44 | 51.69792 | 13.46977 | 29666 ft | 457 kts | 64° |
| 2026-05-05 11:45 | 51.71639 | 13.53130 | 30117 ft | 462 kts | 65° |
| 2026-05-05 11:45 | 51.72576 | 13.56296 | 30369 ft | 463 kts | 65° |
| 2026-05-05 11:45 | 51.73943 | 13.60986 | 30759 ft | 465 kts | 65° |
| 2026-05-05 11:45 | 51.75309 | 13.65742 | 30900 ft | 470 kts | 65° |
| 2026-05-05 11:46 | 51.76669 | 13.70521 | 30877 ft | 470 kts | 66° |
| 2026-05-05 11:46 | 51.79372 | 13.80078 | 30871 ft | 462 kts | 65° |
| 2026-05-05 11:47 | 51.82039 | 13.89532 | 30883 ft | 462 kts | 65° |
| 2026-05-05 11:47 | 51.84699 | 13.98989 | 30888 ft | 463 kts | 65° |
| 2026-05-05 11:48 | 51.88721 | 14.12839 | 30872 ft | 463 kts | 56° |
| 2026-05-05 11:48 | 51.90693 | 14.16878 | 30886 ft | 460 kts | 43° |
| 2026-05-05 11:48 | 51.93107 | 14.20254 | 30900 ft | 457 kts | 31° |
| 2026-05-05 11:49 | 51.98673 | 14.25147 | 30896 ft | 454 kts | 23° |
| 2026-05-05 11:49 | 52.04325 | 14.29769 | 30900 ft | 457 kts | 23° |
| 2026-05-05 11:50 | 52.09960 | 14.34497 | 30891 ft | 460 kts | 24° |
| 2026-05-05 11:50 | 52.15635 | 14.39340 | 30897 ft | 461 kts | 24° |
| 2026-05-05 11:51 | 52.21327 | 14.44220 | 30883 ft | 461 kts | 24° |
| 2026-05-05 11:51 | 52.26992 | 14.49086 | 30866 ft | 459 kts | 24° |
| 2026-05-05 11:52 | 52.32625 | 14.53934 | 30886 ft | 457 kts | 23° |
| 2026-05-05 11:52 | 52.37827 | 14.59887 | 30881 ft | 463 kts | 42° |
| 2026-05-05 11:53 | 52.41689 | 14.68380 | 30899 ft | 466 kts | 58° |
| 2026-05-05 11:53 | 52.44898 | 14.77597 | 30900 ft | 469 kts | 59° |
| 2026-05-05 11:54 | 52.48119 | 14.86894 | 30905 ft | 471 kts | 58° |
| 2026-05-05 11:54 | 52.51416 | 14.96267 | 30905 ft | 473 kts | 58° |
| 2026-05-05 11:55 | 52.54652 | 15.05421 | 30884 ft | 475 kts | 58° |
| 2026-05-05 11:55 | 52.57957 | 15.14796 | 30883 ft | 474 kts | 58° |
| 2026-05-05 11:56 | 52.61239 | 15.24151 | 30876 ft | 473 kts | 58° |
| 2026-05-05 11:56 | 52.64509 | 15.33507 | 30896 ft | 471 kts | 58° |
| 2026-05-05 11:57 | 52.67769 | 15.42869 | 30875 ft | 470 kts | 58° |
| 2026-05-05 11:57 | 52.70994 | 15.52170 | 30880 ft | 468 kts | 58° |
| 2026-05-05 11:58 | 52.74226 | 15.61521 | 30903 ft | 467 kts | 58° |
| 2026-05-05 11:58 | 52.77425 | 15.70815 | 30902 ft | 466 kts | 58° |
| 2026-05-05 11:59 | 52.80648 | 15.80201 | 30890 ft | 471 kts | 59° |
| 2026-05-05 11:59 | 52.83486 | 15.89927 | 30871 ft | 468 kts | 66° |
| 2026-05-05 12:00 | 52.85954 | 15.99801 | 30876 ft | 460 kts | 67° |
| 2026-05-05 12:00 | 52.88329 | 16.09352 | 30906 ft | 462 kts | 66° |
| 2026-05-05 12:01 | 52.90809 | 16.19235 | 30890 ft | 468 kts | 68° |
| 2026-05-05 12:01 | 52.93308 | 16.29194 | 30889 ft | 466 kts | 68° |
| 2026-05-05 12:02 | 52.95772 | 16.39054 | 30884 ft | 463 kts | 68° |
| 2026-05-05 12:02 | 52.98214 | 16.48867 | 30881 ft | 460 kts | 69° |
| 2026-05-05 12:03 | 53.00632 | 16.58630 | 30887 ft | 458 kts | 69° |
| 2026-05-05 12:03 | 53.03046 | 16.68423 | 30885 ft | 457 kts | 69° |
| 2026-05-05 12:04 | 53.05443 | 16.78189 | 30907 ft | 457 kts | 69° |
| 2026-05-05 12:04 | 53.07878 | 16.88162 | 30905 ft | 469 kts | 69° |
| 2026-05-05 12:05 | 53.10324 | 16.98211 | 30881 ft | 467 kts | 69° |
| 2026-05-05 12:05 | 53.12684 | 17.07956 | 30875 ft | 465 kts | 69° |
| 2026-05-05 12:06 | 53.15079 | 17.17899 | 30907 ft | 463 kts | 69° |
| 2026-05-05 12:06 | 53.17479 | 17.27910 | 30881 ft | 462 kts | 69° |
| 2026-05-05 12:07 | 53.19846 | 17.37831 | 30886 ft | 460 kts | 69° |
| 2026-05-05 12:07 | 53.22197 | 17.47723 | 30899 ft | 462 kts | 70° |
| 2026-05-05 12:08 | 53.24572 | 17.57773 | 30904 ft | 470 kts | 70° |
| 2026-05-05 12:08 | 53.26969 | 17.67953 | 30887 ft | 468 kts | 70° |
| 2026-05-05 12:09 | 53.29330 | 17.78029 | 30883 ft | 465 kts | 70° |
| 2026-05-05 12:09 | 53.31680 | 17.88107 | 30885 ft | 463 kts | 70° |
| 2026-05-05 12:10 | 53.34008 | 17.98140 | 30905 ft | 463 kts | 70° |
| 2026-05-05 12:10 | 53.36274 | 18.07945 | 30885 ft | 463 kts | 70° |
| 2026-05-05 12:11 | 53.38595 | 18.18044 | 30889 ft | 465 kts | 70° |
| 2026-05-05 12:11 | 53.40890 | 18.28129 | 30899 ft | 467 kts | 70° |
| 2026-05-05 12:12 | 53.43203 | 18.38346 | 30907 ft | 469 kts | 70° |
| 2026-05-05 12:12 | 53.45517 | 18.48614 | 30879 ft | 472 kts | 70° |
| 2026-05-05 12:13 | 53.47835 | 18.58941 | 30887 ft | 471 kts | 70° |
| 2026-05-05 12:13 | 53.50135 | 18.69237 | 30881 ft | 469 kts | 70° |
| 2026-05-05 12:14 | 53.51494 | 18.74134 | 30874 ft | 467 kts | 57° |
| 2026-05-05 12:14 | 53.53495 | 18.78413 | 30900 ft | 464 kts | 43° |
| 2026-05-05 12:14 | 53.55962 | 18.81914 | 30884 ft | 460 kts | 29° |
| 2026-05-05 12:14 | 53.58731 | 18.84556 | 30899 ft | 456 kts | 25° |
| 2026-05-05 12:15 | 53.64362 | 18.89581 | 30902 ft | 461 kts | 25° |
| 2026-05-05 12:15 | 53.70024 | 18.94697 | 30898 ft | 466 kts | 25° |
| 2026-05-05 12:16 | 53.75744 | 18.99974 | 30915 ft | 468 kts | 26° |
| 2026-05-05 12:16 | 53.81286 | 19.05137 | 30904 ft | 469 kts | 26° |
| 2026-05-05 12:17 | 53.86999 | 19.10479 | 30902 ft | 470 kts | 26° |
| 2026-05-05 12:17 | 53.92703 | 19.15827 | 30894 ft | 469 kts | 26° |
| 2026-05-05 12:18 | 53.98500 | 19.21271 | 30939 ft | 485 kts | 26° |
| 2026-05-05 12:18 | 54.04490 | 19.26913 | 30930 ft | 501 kts | 26° |
| 2026-05-05 12:19 | 54.10675 | 19.32765 | 30922 ft | 516 kts | 26° |
| 2026-05-05 12:19 | 54.17025 | 19.38797 | 30927 ft | 528 kts | 26° |
| 2026-05-05 12:20 | 54.23508 | 19.44978 | 30938 ft | 539 kts | 26° |
| 2026-05-05 12:20 | 54.30124 | 19.51308 | 30901 ft | 547 kts | 26° |
| 2026-05-05 12:21 | 54.36706 | 19.57633 | 30907 ft | 539 kts | 26° |
| 2026-05-05 12:21 | 54.43231 | 19.63974 | 30926 ft | 539 kts | 28° |
| 2026-05-05 12:22 | 54.49302 | 19.71617 | 30937 ft | 543 kts | 38° |
| 2026-05-05 12:22 | 54.55048 | 19.80107 | 30924 ft | 545 kts | 39° |
| 2026-05-05 12:23 | 54.60772 | 19.88573 | 30928 ft | 545 kts | 38° |
| 2026-05-05 12:23 | 54.66568 | 19.97048 | 30939 ft | 547 kts | 38° |
| 2026-05-05 12:24 | 54.72248 | 20.05344 | 30925 ft | 549 kts | 38° |
| 2026-05-05 12:24 | 54.78080 | 20.13906 | 30927 ft | 549 kts | 38° |
| 2026-05-05 12:25 | 54.83901 | 20.22497 | 30927 ft | 549 kts | 38° |
| 2026-05-05 12:25 | 54.89717 | 20.31109 | 30941 ft | 550 kts | 38° |
| 2026-05-05 12:26 | 54.95547 | 20.39770 | 30941 ft | 551 kts | 38° |
| 2026-05-05 12:26 | 55.01312 | 20.48367 | 30936 ft | 552 kts | 38° |
| 2026-05-05 12:27 | 55.07145 | 20.57100 | 30935 ft | 552 kts | 38° |
| 2026-05-05 12:27 | 55.12976 | 20.65865 | 30935 ft | 553 kts | 38° |
| 2026-05-05 12:28 | 55.18809 | 20.74670 | 30930 ft | 554 kts | 38° |
| 2026-05-05 12:28 | 55.24639 | 20.83507 | 30900 ft | 553 kts | 38° |
| 2026-05-05 12:29 | 55.30435 | 20.92324 | 30930 ft | 551 kts | 38° |
| 2026-05-05 12:29 | 55.36109 | 21.00921 | 30929 ft | 551 kts | 38° |
| 2026-05-05 12:30 | 55.41921 | 21.09714 | 30928 ft | 551 kts | 38° |
| 2026-05-05 12:30 | 55.47728 | 21.18543 | 30921 ft | 551 kts | 38° |
| 2026-05-05 12:31 | 55.52552 | 21.25914 | 30958 ft | 552 kts | 38° |
| 2026-05-05 12:31 | 55.58348 | 21.34809 | 30918 ft | 553 kts | 38° |
| 2026-05-05 12:32 | 55.64155 | 21.43757 | 30915 ft | 553 kts | 38° |
| 2026-05-05 12:32 | 55.69956 | 21.52731 | 30914 ft | 553 kts | 38° |
| 2026-05-05 12:33 | 55.75754 | 21.61736 | 30926 ft | 553 kts | 38° |
| 2026-05-05 12:33 | 55.81538 | 21.70755 | 30904 ft | 554 kts | 38° |
| 2026-05-05 12:34 | 55.87317 | 21.79807 | 30897 ft | 553 kts | 38° |
| 2026-05-05 12:34 | 55.93087 | 21.88881 | 30897 ft | 553 kts | 39° |
| 2026-05-05 12:35 | 55.98853 | 21.97985 | 30902 ft | 554 kts | 38° |
| 2026-05-05 12:35 | 56.04473 | 22.06896 | 30891 ft | 554 kts | 39° |
| 2026-05-05 12:36 | 56.10224 | 22.16052 | 30866 ft | 553 kts | 38° |
| 2026-05-05 12:36 | 56.15969 | 22.25236 | 30879 ft | 553 kts | 39° |
| 2026-05-05 12:37 | 56.21667 | 22.34385 | 30885 ft | 554 kts | 39° |
| 2026-05-05 12:37 | 56.27405 | 22.43637 | 30881 ft | 554 kts | 39° |
| 2026-05-05 12:38 | 56.33137 | 22.52917 | 30874 ft | 554 kts | 39° |
| 2026-05-05 12:38 | 56.38865 | 22.62228 | 30878 ft | 554 kts | 39° |
| 2026-05-05 12:39 | 56.44558 | 22.71646 | 30874 ft | 556 kts | 39° |
| 2026-05-05 12:39 | 56.50233 | 22.81153 | 30864 ft | 556 kts | 39° |
| 2026-05-05 12:40 | 56.55908 | 22.90693 | 30863 ft | 557 kts | 39° |
| 2026-05-05 12:40 | 56.61519 | 23.00149 | 30861 ft | 557 kts | 39° |
| 2026-05-05 12:41 | 56.67123 | 23.09622 | 30858 ft | 557 kts | 39° |
| 2026-05-05 12:41 | 56.72791 | 23.19247 | 30857 ft | 557 kts | 40° |
| 2026-05-05 12:42 | 56.78414 | 23.28837 | 30852 ft | 557 kts | 40° |
| 2026-05-05 12:42 | 56.84064 | 23.38518 | 30881 ft | 557 kts | 39° |
| 2026-05-05 12:43 | 56.89716 | 23.48242 | 30844 ft | 558 kts | 40° |
| 2026-05-05 12:43 | 56.95361 | 23.57996 | 30848 ft | 558 kts | 40° |
| 2026-05-05 12:44 | 57.00989 | 23.67764 | 30844 ft | 559 kts | 40° |
| 2026-05-05 12:44 | 57.06627 | 23.77594 | 30866 ft | 559 kts | 40° |
| 2026-05-05 12:45 | 57.12265 | 23.87467 | 30842 ft | 559 kts | 40° |
| 2026-05-05 12:45 | 57.17890 | 23.97359 | 30837 ft | 559 kts | 40° |
| 2026-05-05 12:46 | 57.23368 | 24.07036 | 30839 ft | 558 kts | 40° |
| 2026-05-05 12:46 | 57.28974 | 24.16982 | 30876 ft | 559 kts | 40° |
| 2026-05-05 12:47 | 57.34584 | 24.26980 | 30851 ft | 559 kts | 40° |
| 2026-05-05 12:47 | 57.40141 | 24.36926 | 30850 ft | 559 kts | 40° |
| 2026-05-05 12:48 | 57.45727 | 24.46972 | 30858 ft | 559 kts | 40° |
| 2026-05-05 12:48 | 57.51305 | 24.57046 | 30867 ft | 560 kts | 40° |
| 2026-05-05 12:49 | 57.56887 | 24.67174 | 30853 ft | 560 kts | 40° |
| 2026-05-05 12:49 | 57.62461 | 24.77334 | 30843 ft | 560 kts | 40° |
| 2026-05-05 12:50 | 57.68022 | 24.87515 | 30843 ft | 560 kts | 40° |
| 2026-05-05 12:50 | 57.73574 | 24.97726 | 30819 ft | 559 kts | 40° |
| 2026-05-05 12:51 | 57.78964 | 25.07687 | 30827 ft | 558 kts | 40° |
| 2026-05-05 12:51 | 57.84475 | 25.17912 | 30822 ft | 557 kts | 41° |
| 2026-05-05 12:52 | 57.89984 | 25.28181 | 30818 ft | 557 kts | 41° |
| 2026-05-05 12:52 | 57.95469 | 25.38455 | 30811 ft | 556 kts | 41° |
| 2026-05-05 12:53 | 58.00920 | 25.48711 | 30811 ft | 554 kts | 41° |
| 2026-05-05 12:53 | 58.06362 | 25.58995 | 30806 ft | 553 kts | 41° |
| 2026-05-05 12:54 | 58.14467 | 25.74400 | 30842 ft | 552 kts | 42° |
| 2026-05-05 12:55 | 58.19862 | 25.84715 | 30805 ft | 550 kts | 42° |
| 2026-05-05 12:55 | 58.25232 | 25.95028 | 30789 ft | 548 kts | 42° |
| 2026-05-05 12:56 | 58.30430 | 26.05056 | 30792 ft | 546 kts | 42° |
| 2026-05-05 12:56 | 58.35751 | 26.15365 | 30818 ft | 546 kts | 43° |
| 2026-05-05 12:57 | 58.41091 | 26.25759 | 30786 ft | 546 kts | 43° |
| 2026-05-05 12:57 | 58.46401 | 26.36144 | 30778 ft | 546 kts | 43° |
| 2026-05-05 12:58 | 58.51670 | 26.46497 | 30774 ft | 547 kts | 43° |
| 2026-05-05 12:58 | 58.56964 | 26.56947 | 30768 ft | 547 kts | 43° |
| 2026-05-05 12:59 | 58.62254 | 26.67436 | 30760 ft | 547 kts | 43° |
| 2026-05-05 12:59 | 58.67535 | 26.77957 | 30763 ft | 547 kts | 43° |
| 2026-05-05 13:00 | 58.75446 | 26.93811 | 30762 ft | 547 kts | 43° |
| 2026-05-05 13:01 | 58.85829 | 27.14787 | 30764 ft | 547 kts | 44° |
| 2026-05-05 13:01 | 58.90865 | 27.25827 | 30759 ft | 550 kts | 51° |
| 2026-05-05 13:02 | 58.94945 | 27.38393 | 30403 ft | 554 kts | 61° |
| 2026-05-05 13:02 | 58.96689 | 27.45020 | 29880 ft | 549 kts | 62° |
| 2026-05-05 13:02 | 58.98384 | 27.51605 | 29288 ft | 542 kts | 62° |
| 2026-05-05 13:03 | 59.00064 | 27.58069 | 28670 ft | 536 kts | 62° |
| 2026-05-05 13:03 | 59.01737 | 27.64384 | 28070 ft | 530 kts | 61° |
| 2026-05-05 13:03 | 59.03429 | 27.70704 | 27475 ft | 525 kts | 61° |
| 2026-05-05 13:03 | 59.05117 | 27.76958 | 26898 ft | 520 kts | 60° |
| 2026-05-05 13:04 | 59.06940 | 27.82993 | 26341 ft | 515 kts | 57° |
| 2026-05-05 13:04 | 59.08830 | 27.88887 | 25748 ft | 511 kts | 56° |
| 2026-05-05 13:04 | 59.10724 | 27.94707 | 25224 ft | 507 kts | 56° |
| 2026-05-05 13:04 | 59.12537 | 28.00284 | 24712 ft | 503 kts | 56° |
| 2026-05-05 13:05 | 59.14359 | 28.05936 | 24220 ft | 499 kts | 56° |
| 2026-05-05 13:05 | 59.16188 | 28.11660 | 23746 ft | 495 kts | 56° |
| 2026-05-05 13:05 | 59.17993 | 28.17347 | 23249 ft | 492 kts | 56° |
| 2026-05-05 13:05 | 59.19787 | 28.23026 | 22654 ft | 489 kts | 56° |
| 2026-05-05 13:06 | 59.21564 | 28.28664 | 22102 ft | 486 kts | 56° |
| 2026-05-05 13:06 | 59.23328 | 28.34275 | 21532 ft | 484 kts | 57° |
| 2026-05-05 13:06 | 59.25084 | 28.39865 | 20986 ft | 481 kts | 57° |
| 2026-05-05 13:06 | 59.26826 | 28.45423 | 20440 ft | 478 kts | 57° |
| 2026-05-05 13:07 | 59.28449 | 28.51073 | 19953 ft | 474 kts | 65° |
| 2026-05-05 13:07 | 59.29585 | 28.56962 | 19757 ft | 463 kts | 72° |
| 2026-05-05 13:07 | 59.30567 | 28.62989 | 19480 ft | 457 kts | 73° |
| 2026-05-05 13:07 | 59.31485 | 28.68860 | 19212 ft | 455 kts | 73° |
| 2026-05-05 13:08 | 59.32417 | 28.74761 | 18951 ft | 454 kts | 73° |
| 2026-05-05 13:08 | 59.33368 | 28.80633 | 18668 ft | 444 kts | 72° |
| 2026-05-05 13:08 | 59.34296 | 28.86233 | 18312 ft | 421 kts | 72° |
| 2026-05-05 13:08 | 59.35187 | 28.91538 | 17968 ft | 399 kts | 72° |
| 2026-05-05 13:09 | 59.36040 | 28.96584 | 17561 ft | 380 kts | 72° |
| 2026-05-05 13:09 | 59.36817 | 29.01191 | 17205 ft | 370 kts | 72° |
| 2026-05-05 13:09 | 59.37622 | 29.05966 | 16827 ft | 369 kts | 72° |
| 2026-05-05 13:09 | 59.38426 | 29.10761 | 16449 ft | 370 kts | 72° |
| 2026-05-05 13:10 | 59.39229 | 29.15563 | 16058 ft | 371 kts | 72° |
| 2026-05-05 13:10 | 59.40031 | 29.20375 | 15679 ft | 371 kts | 72° |
| 2026-05-05 13:10 | 59.40830 | 29.25182 | 15312 ft | 369 kts | 72° |
| 2026-05-05 13:10 | 59.41620 | 29.29948 | 14935 ft | 364 kts | 72° |
| 2026-05-05 13:11 | 59.42398 | 29.34654 | 14521 ft | 360 kts | 72° |
| 2026-05-05 13:11 | 59.43166 | 29.39317 | 14056 ft | 357 kts | 72° |
| 2026-05-05 13:11 | 59.43927 | 29.43948 | 13601 ft | 355 kts | 72° |
| 2026-05-05 13:11 | 59.44680 | 29.48535 | 13102 ft | 352 kts | 73° |
| 2026-05-05 13:12 | 59.45428 | 29.53105 | 12600 ft | 349 kts | 73° |
| 2026-05-05 13:12 | 59.46167 | 29.57633 | 12126 ft | 347 kts | 73° |
| 2026-05-05 13:12 | 59.46901 | 29.62138 | 11646 ft | 344 kts | 73° |
| 2026-05-05 13:12 | 59.47623 | 29.66582 | 11154 ft | 342 kts | 73° |
| 2026-05-05 13:13 | 59.48343 | 29.71023 | 10678 ft | 336 kts | 73° |
| 2026-05-05 13:13 | 59.49045 | 29.75370 | 10211 ft | 329 kts | 74° |
| 2026-05-05 13:13 | 59.49726 | 29.79608 | 9816 ft | 321 kts | 74° |
| 2026-05-05 13:13 | 59.50386 | 29.83722 | 9416 ft | 317 kts | 74° |
| 2026-05-05 13:14 | 59.51046 | 29.87836 | 8990 ft | 313 kts | 74° |
| 2026-05-05 13:14 | 59.51698 | 29.91911 | 8548 ft | 309 kts | 74° |
| 2026-05-05 13:14 | 59.52339 | 29.95936 | 8164 ft | 312 kts | 74° |
| 2026-05-05 13:14 | 59.52998 | 29.99886 | 7874 ft | 313 kts | 70° |
| 2026-05-05 13:15 | 59.53734 | 30.03603 | 7556 ft | 311 kts | 68° |
| 2026-05-05 13:15 | 59.54580 | 30.07498 | 7192 ft | 305 kts | 60° |
| 2026-05-05 13:15 | 59.55784 | 30.10944 | 6793 ft | 305 kts | 49° |
| 2026-05-05 13:15 | 59.57148 | 30.14118 | 6407 ft | 300 kts | 47° |
| 2026-05-05 13:16 | 59.58501 | 30.17183 | 5954 ft | 290 kts | 47° |
| 2026-05-05 13:16 | 59.59785 | 30.20138 | 5496 ft | 276 kts | 47° |
| 2026-05-05 13:16 | 59.60992 | 30.22964 | 5205 ft | 270 kts | 48° |
| 2026-05-05 13:16 | 59.62176 | 30.25776 | 4932 ft | 262 kts | 48° |
| 2026-05-05 13:17 | 59.63311 | 30.28500 | 4777 ft | 253 kts | 49° |
| 2026-05-05 13:17 | 59.64444 | 30.31232 | 4659 ft | 259 kts | 49° |
| 2026-05-05 13:17 | 59.65573 | 30.33972 | 4421 ft | 254 kts | 48° |
| 2026-05-05 13:17 | 59.66675 | 30.36654 | 4164 ft | 246 kts | 49° |
| 2026-05-05 13:18 | 59.67736 | 30.39243 | 3896 ft | 238 kts | 48° |
| 2026-05-05 13:18 | 59.68763 | 30.41754 | 3617 ft | 231 kts | 48° |
| 2026-05-05 13:18 | 59.69757 | 30.44187 | 3363 ft | 224 kts | 48° |
| 2026-05-05 13:18 | 59.70721 | 30.46554 | 3193 ft | 222 kts | 48° |
| 2026-05-05 13:19 | 59.71368 | 30.48140 | 3074 ft | 223 kts | 48° |
| 2026-05-05 13:19 | 59.72401 | 30.50396 | 2827 ft | 218 kts | 29° |
| 2026-05-05 13:19 | 59.73734 | 30.51273 | 2560 ft | 187 kts | 346° |
| 2026-05-05 13:19 | 59.74791 | 30.50383 | 2496 ft | 156 kts | 304° |
| 2026-05-05 13:20 | 59.75636 | 30.48083 | 2254 ft | 154 kts | 298° |
| 2026-05-05 13:20 | 59.75989 | 30.46851 | 2095 ft | 150 kts | 290° |
| 2026-05-05 13:20 | 59.76405 | 30.44949 | 1905 ft | 152 kts | 288° |
| 2026-05-05 13:20 | 59.76796 | 30.43085 | 1713 ft | 140 kts | 285° |
| 2026-05-05 13:21 | 59.77092 | 30.41321 | 1487 ft | 128 kts | 284° |
| 2026-05-05 13:21 | 59.77346 | 30.39659 | 1349 ft | 125 kts | 284° |
| 2026-05-05 13:21 | 59.77592 | 30.38005 | 1160 ft | 124 kts | 283° |
| 2026-05-05 13:21 | 59.77834 | 30.36378 | 1030 ft | 129 kts | 283° |
| 2026-05-05 13:22 | 59.78113 | 30.34504 | 823 ft | 147 kts | 287° |
| 2026-05-05 13:22 | 59.78397 | 30.32582 | 598 ft | 144 kts | 287° |
| 2026-05-05 13:22 | 59.78663 | 30.30692 | 355 ft | 142 kts | 288° |
| 2026-05-05 13:22 | 59.78950 | 30.28792 | 163 ft | 144 kts | 288° |
| 2026-05-05 13:23 | 59.79231 | 30.26952 | 88 ft | 129 kts | 287° |
| 2026-05-05 13:23 | 59.79437 | 30.25545 | 87 ft | 79 kts | 286° |
| 2026-05-05 13:23 | 59.79556 | 30.24756 | 86 ft | 55 kts | 287° |
| 2026-05-05 13:23 | 59.79662 | 30.24036 | 85 ft | 48 kts | 286° |
| 2026-05-05 13:24 | 59.79751 | 30.23462 | 84 ft | 38 kts | 290° |
| 2026-05-05 13:24 | 59.79855 | 30.23158 | 86 ft | 19 kts | 313° |
| 2026-05-05 13:24 | 59.79949 | 30.23042 | 84 ft | 15 kts | 34° |
| 2026-05-05 13:24 | 59.79959 | 30.23245 | 82 ft | 20 kts | 106° |
| 2026-05-05 13:25 | 59.79900 | 30.23643 | 84 ft | 36 kts | 107° |
| 2026-05-05 13:25 | 59.79831 | 30.24108 | 84 ft | 34 kts | 106° |
| 2026-05-05 13:25 | 59.79767 | 30.24534 | 86 ft | 34 kts | 107° |
| 2026-05-05 13:25 | 59.79696 | 30.25010 | 84 ft | 39 kts | 106° |
| 2026-05-05 13:26 | 59.79626 | 30.25497 | 87 ft | 34 kts | 106° |
| 2026-05-05 13:26 | 59.79564 | 30.25903 | 87 ft | 22 kts | 107° |
| 2026-05-05 13:26 | 59.79637 | 30.26028 | 85 ft | 20 kts | 23° |
| 2026-05-05 13:26 | 59.79791 | 30.26140 | 84 ft | 25 kts | 17° |
| 2026-05-05 13:27 | 59.79955 | 30.26238 | 84 ft | 25 kts | 16° |
| 2026-05-05 13:27 | 59.80112 | 30.26330 | 86 ft | 19 kts | 18° |
| 2026-05-05 13:27 | 59.80239 | 30.26405 | 84 ft | 13 kts | 16° |
| 2026-05-05 13:27 | 59.80292 | 30.26308 | 86 ft | 10 kts | 289° |
| 2026-05-05 13:28 | 59.80301 | 30.26249 | 85 ft | 3 kts | 286° |
| 2026-05-05 13:28 | 59.80302 | 30.26240 | 85 ft | 0 kts | 286° |